createdAt,value
2022-09-15T00:01:10.004Z,99345.16
2022-09-15T00:03:37.660Z,99346.97
2022-09-15T00:06:05.056Z,99347.81
2022-09-15T00:08:32.449Z,99350.91
2022-09-15T00:11:08.742Z,99352.13
2022-09-15T00:13:37.473Z,99339.84
2022-09-15T00:16:05.699Z,99334.00
2022-09-15T00:18:34.102Z,99332.88
2022-09-15T00:21:06.181Z,99340.38
2022-09-15T00:23:33.300Z,99333.81
2022-09-15T00:26:00.402Z,99334.50
2022-09-15T00:28:27.581Z,99331.84
2022-09-15T00:30:55.780Z,99336.44
2022-09-15T00:33:23.664Z,99334.50
2022-09-15T00:35:53.456Z,99325.59
2022-09-15T00:38:20.807Z,99324.97
2022-09-15T00:40:53.049Z,99322.16
2022-09-15T00:43:23.173Z,99326.09
2022-09-15T00:45:50.765Z,99325.38
2022-09-15T00:48:22.131Z,99319.72
2022-09-15T00:50:56.086Z,99308.28
2022-09-15T00:53:26.063Z,99308.38
2022-09-15T00:55:53.479Z,99308.88
2022-09-15T00:58:31.643Z,99303.53
2022-09-15T01:01:01.142Z,99310.09
2022-09-15T01:03:30.622Z,99311.63
2022-09-15T01:06:07.429Z,99315.16
2022-09-15T01:08:44.004Z,99311.63
2022-09-15T01:11:11.229Z,99309.06
2022-09-15T01:13:38.161Z,99307.97
2022-09-15T01:16:33.075Z,99304.53
2022-09-15T01:19:32.413Z,99306.75
2022-09-15T01:22:11.128Z,99302.50
2022-09-15T01:25:02.684Z,99295.00
2022-09-15T01:27:51.044Z,99298.88
2022-09-15T01:30:22.938Z,99297.84
2022-09-15T01:33:14.333Z,99304.41
2022-09-15T01:36:01.603Z,99297.50
2022-09-15T01:38:38.200Z,99305.59
2022-09-15T01:41:25.534Z,99305.13
2022-09-15T01:44:11.114Z,99302.22
2022-09-15T01:46:52.485Z,99306.44
2022-09-15T01:49:25.247Z,99312.22
2022-09-15T01:51:53.967Z,99315.91
2022-09-15T01:54:26.850Z,99313.41
2022-09-15T01:56:53.999Z,99320.53
2022-09-15T01:59:20.963Z,99314.66
2022-09-15T02:02:26.702Z,99301.19
2022-09-15T02:04:59.891Z,99297.03
2022-09-15T02:07:51.690Z,99293.78
2022-09-15T02:10:38.319Z,99296.84
2022-09-15T02:13:14.775Z,99285.69
2022-09-15T02:15:48.161Z,99287.88
2022-09-15T02:18:25.849Z,99290.03
2022-09-15T02:20:59.961Z,99296.22
2022-09-15T02:23:31.559Z,99285.97
2022-09-15T02:26:07.011Z,99285.75
2022-09-15T02:28:38.288Z,99292.69
2022-09-15T02:31:08.885Z,99290.94
2022-09-15T02:33:44.389Z,99287.31
2022-09-15T02:36:15.871Z,99293.06
2022-09-15T02:38:49.372Z,99304.22
2022-09-15T02:41:17.357Z,99301.50
2022-09-15T02:43:46.309Z,99309.56
2022-09-15T02:46:16.031Z,99304.09
2022-09-15T02:48:43.052Z,99314.06
2022-09-15T02:51:10.499Z,99309.72
2022-09-15T02:53:37.531Z,99310.63
2022-09-15T02:56:08.181Z,99309.25
2022-09-15T02:58:35.405Z,99315.56
2022-09-15T03:01:07.610Z,99319.47
2022-09-15T03:03:35.297Z,99325.81
2022-09-15T03:06:18.519Z,99309.56
2022-09-15T03:08:58.892Z,99308.78
2022-09-15T03:11:27.731Z,99297.66
2022-09-15T03:13:59.904Z,99284.41
2022-09-15T03:16:28.091Z,99292.72
2022-09-15T03:18:56.876Z,99287.59
2022-09-15T03:21:24.033Z,99274.06
2022-09-15T03:23:51.660Z,99279.72
2022-09-15T03:26:18.731Z,99279.03
2022-09-15T03:28:45.683Z,99283.59
2022-09-15T03:31:12.879Z,99279.53
2022-09-15T03:33:40.405Z,99278.91
2022-09-15T03:36:07.810Z,99285.41
2022-09-15T03:38:35.007Z,99280.97
2022-09-15T03:41:04.948Z,99280.59
2022-09-15T03:43:32.482Z,99285.81
2022-09-15T03:46:00.026Z,99279.78
2022-09-15T03:48:28.589Z,99279.53
2022-09-15T03:50:55.684Z,99280.56
2022-09-15T03:53:23.444Z,99286.16
2022-09-15T03:55:50.777Z,99279.59
2022-09-15T03:58:19.129Z,99292.16
2022-09-15T04:00:47.068Z,99279.53
2022-09-15T04:03:14.803Z,99283.41
2022-09-15T04:05:42.318Z,99297.28
2022-09-15T04:08:13.265Z,99312.81
2022-09-15T04:10:41.382Z,99327.94
2022-09-15T04:13:08.839Z,99340.31
2022-09-15T04:15:36.154Z,99342.22
2022-09-15T04:18:04.244Z,99346.16
2022-09-15T04:20:32.232Z,99328.66
2022-09-15T04:22:59.324Z,99323.19
2022-09-15T04:25:28.023Z,99333.81
2022-09-15T04:27:57.082Z,99337.56
2022-09-15T04:30:24.657Z,99349.91
2022-09-15T04:32:52.567Z,99343.78
2022-09-15T04:35:22.082Z,99354.44
2022-09-15T04:37:49.106Z,99349.16
2022-09-15T04:40:16.404Z,99345.69
2022-09-15T04:42:43.399Z,99354.59
2022-09-15T04:45:10.590Z,99348.06
2022-09-15T04:47:37.628Z,99341.03
2022-09-15T04:50:04.954Z,99343.88
2022-09-15T04:52:32.273Z,99337.47
2022-09-15T04:54:59.241Z,99335.84
2022-09-15T04:57:26.211Z,99331.41
2022-09-15T04:59:53.180Z,99331.41
2022-09-15T05:02:20.276Z,99338.88
2022-09-15T05:04:49.033Z,99345.16
2022-09-15T05:07:16.185Z,99342.53
2022-09-15T05:09:43.270Z,99335.47
2022-09-15T05:12:10.284Z,99335.75
2022-09-15T05:14:37.263Z,99331.31
2022-09-15T05:17:04.241Z,99344.59
2022-09-15T05:19:31.194Z,99350.34
2022-09-15T05:21:58.150Z,99353.72
2022-09-15T05:24:25.177Z,99356.13
2022-09-15T05:26:52.134Z,99356.84
2022-09-15T05:29:19.718Z,99354.16
2022-09-15T05:31:46.798Z,99346.75
2022-09-15T05:34:17.372Z,99355.97
2022-09-15T05:36:44.381Z,99354.34
2022-09-15T05:39:11.332Z,99357.28
2022-09-15T05:41:38.346Z,99358.75
2022-09-15T05:44:05.394Z,99353.28
2022-09-15T05:46:32.377Z,99363.44
2022-09-15T05:48:59.490Z,99361.75
2022-09-15T05:51:26.831Z,99368.38
2022-09-15T05:53:53.720Z,99369.97
2022-09-15T05:56:20.888Z,99360.38
2022-09-15T05:58:48.957Z,99360.38
2022-09-15T06:01:22.138Z,99370.66
2022-09-15T06:03:49.377Z,99364.25
2022-09-15T06:06:17.143Z,99365.88
2022-09-15T06:08:52.792Z,99369.59
2022-09-15T06:11:25.324Z,99370.78
2022-09-15T06:13:52.419Z,99365.63
2022-09-15T06:16:24.212Z,99358.88
2022-09-15T06:18:52.884Z,99370.66
2022-09-15T06:21:25.752Z,99365.91
2022-09-15T06:24:01.245Z,99364.00
2022-09-15T06:26:28.588Z,99367.28
2022-09-15T06:29:00.826Z,99372.31
2022-09-15T06:31:30.016Z,99369.84
2022-09-15T06:33:58.515Z,99367.28
2022-09-15T06:36:27.967Z,99357.63
2022-09-15T06:38:54.969Z,99370.22
2022-09-15T06:41:22.669Z,99375.16
2022-09-15T06:43:49.800Z,99376.16
2022-09-15T06:46:23.140Z,99372.88
2022-09-15T06:48:51.448Z,99363.22
2022-09-15T06:51:20.698Z,99363.22
2022-09-15T06:53:47.768Z,99358.03
2022-09-15T06:56:22.936Z,99368.22
2022-09-15T06:58:50.401Z,99359.13
2022-09-15T07:01:26.048Z,99373.13
2022-09-15T07:03:53.359Z,99357.59
2022-09-15T07:08:48.225Z,99350.66
2022-09-15T07:11:16.024Z,99347.25
2022-09-15T07:13:43.383Z,99344.88
2022-09-15T07:16:13.010Z,99340.56
2022-09-15T07:18:43.347Z,99338.94
2022-09-15T07:21:14.164Z,99345.91
2022-09-15T07:23:42.151Z,99352.25
2022-09-15T07:26:13.354Z,99345.31
2022-09-15T07:28:42.539Z,99356.16
2022-09-15T07:31:12.529Z,99347.31
2022-09-15T07:33:40.963Z,99352.50
2022-09-15T07:36:08.944Z,99356.84
2022-09-15T07:38:40.779Z,99346.06
2022-09-15T07:41:10.431Z,99351.44
2022-09-15T07:43:37.680Z,99346.94
2022-09-15T07:46:05.623Z,99352.25
2022-09-15T07:48:32.812Z,99349.81
2022-09-15T07:51:02.627Z,99352.25
2022-09-15T07:53:30.224Z,99344.34
2022-09-15T07:55:57.727Z,99354.34
2022-09-15T07:58:25.374Z,99345.63
2022-09-15T08:00:52.584Z,99354.53
2022-09-15T08:03:19.669Z,99366.00
2022-09-15T08:05:46.629Z,99357.44
2022-09-15T08:08:13.761Z,99353.41
2022-09-15T08:10:41.551Z,99363.09
2022-09-15T08:13:09.126Z,99350.13
2022-09-15T08:15:38.046Z,99355.47
2022-09-15T08:18:06.182Z,99348.88
2022-09-15T08:20:33.562Z,99344.47
2022-09-15T08:23:00.869Z,99357.03
2022-09-15T08:25:27.772Z,99350.81
2022-09-15T08:27:56.445Z,99352.88
2022-09-15T08:30:26.860Z,99340.88
2022-09-15T08:32:54.976Z,99338.72
2022-09-15T08:35:22.068Z,99337.31
2022-09-15T08:37:49.138Z,99328.94
2022-09-15T08:40:20.000Z,99339.47
2022-09-15T08:42:50.862Z,99339.66
2022-09-15T08:45:24.843Z,99325.09
2022-09-15T08:47:58.860Z,99324.47
2022-09-15T08:50:28.644Z,99323.19
2022-09-15T08:53:12.152Z,99310.03
2022-09-15T08:55:53.275Z,99299.78
2022-09-15T08:58:32.122Z,99304.34
2022-09-15T09:01:11.128Z,99299.38
2022-09-15T09:03:44.154Z,99285.34
2022-09-15T09:06:17.319Z,99274.84
2022-09-15T09:09:00.833Z,99268.25
2022-09-15T09:11:51.059Z,99286.53
2022-09-15T09:14:37.834Z,99278.75
2022-09-15T09:17:16.813Z,99276.44
2022-09-15T09:19:58.866Z,99260.47
2022-09-15T09:22:35.960Z,99245.97
2022-09-15T09:25:21.287Z,99246.59
2022-09-15T09:27:52.986Z,99238.63
2022-09-15T09:30:23.344Z,99226.66
2022-09-15T09:32:56.312Z,99217.69
2022-09-15T09:35:37.819Z,99212.84
2022-09-15T09:38:05.098Z,99221.88
2022-09-15T09:40:33.862Z,99206.56
2022-09-15T09:43:01.290Z,99191.63
2022-09-15T09:45:28.332Z,99184.72
2022-09-15T09:48:02.544Z,99201.56
2022-09-15T09:50:38.966Z,99202.09
2022-09-15T09:53:34.252Z,99217.34
2022-09-15T09:56:16.621Z,99201.25
2022-09-15T09:58:44.641Z,99221.22
2022-09-15T10:01:23.471Z,99213.47
2022-09-15T10:04:11.977Z,99199.84
2022-09-15T10:06:40.257Z,99196.13
2022-09-15T10:09:17.234Z,99197.66
2022-09-15T10:12:00.581Z,99204.06
2022-09-15T10:14:37.800Z,99198.72
2022-09-15T10:17:11.116Z,99185.00
2022-09-15T10:19:44.007Z,99179.13
2022-09-15T10:22:23.945Z,99170.03
2022-09-15T10:24:51.128Z,99173.97
2022-09-15T10:27:27.340Z,99174.31
2022-09-15T10:30:00.006Z,99169.44
2022-09-15T10:32:28.476Z,99149.47
2022-09-15T10:35:13.352Z,99132.56
2022-09-15T10:37:49.311Z,99152.00
2022-09-15T10:40:33.097Z,99144.88
2022-09-15T10:43:09.000Z,99151.34
2022-09-15T10:45:45.242Z,99140.94
2022-09-15T10:48:30.568Z,99136.59
2022-09-15T10:51:09.921Z,99132.50
2022-09-15T10:53:46.388Z,99152.94
2022-09-15T10:56:34.150Z,99155.44
2022-09-15T10:59:22.114Z,99170.16
2022-09-15T11:01:59.248Z,99187.16
2022-09-15T11:05:22.619Z,99180.22
2022-09-15T11:07:55.570Z,99181.69
2022-09-15T11:10:34.274Z,99196.78
2022-09-15T11:13:17.321Z,99190.72
2022-09-15T11:15:50.035Z,99188.06
2022-09-15T11:19:05.392Z,99188.56
2022-09-15T11:21:38.350Z,99178.78
2022-09-15T11:24:26.464Z,99181.31
2022-09-15T11:27:03.681Z,99161.97
2022-09-15T11:29:48.980Z,99164.88
2022-09-15T11:32:21.312Z,99181.00
2022-09-15T11:35:02.812Z,99172.44
2022-09-15T11:37:42.516Z,99190.84
2022-09-15T11:40:24.077Z,99223.94
2022-09-15T11:43:29.795Z,99285.53
2022-09-15T11:45:59.579Z,99298.31
2022-09-15T11:48:50.354Z,99261.44
2022-09-15T11:51:21.759Z,99264.97
2022-09-15T11:54:11.447Z,99243.81
2022-09-15T11:56:43.601Z,99193.91
2022-09-15T11:59:27.144Z,99208.88
2022-09-15T12:02:16.034Z,99202.97
2022-09-15T12:05:06.602Z,99206.00
2022-09-15T12:07:41.080Z,99214.03
2022-09-15T12:10:19.283Z,99214.16
2022-09-15T12:12:47.273Z,99215.84
2022-09-15T12:15:17.668Z,99214.75
2022-09-15T12:18:27.246Z,99206.75
2022-09-15T12:21:01.232Z,99211.94
2022-09-15T12:23:41.213Z,99212.38
2022-09-15T12:26:16.390Z,99189.56
2022-09-15T12:28:57.903Z,99199.69
2022-09-15T12:31:37.928Z,99192.13
2022-09-15T12:34:04.937Z,99192.34
2022-09-15T12:36:47.121Z,99178.09
2022-09-15T12:39:36.404Z,99174.50
2022-09-15T12:42:03.304Z,99171.63
2022-09-15T12:44:53.698Z,99162.56
2022-09-15T12:47:33.645Z,99161.69
2022-09-15T12:50:20.489Z,99174.31
2022-09-15T12:52:53.669Z,99187.00
2022-09-15T12:55:21.025Z,99162.25
2022-09-15T12:57:54.697Z,99154.13
2022-09-15T13:00:23.679Z,99164.38
2022-09-15T13:02:51.624Z,99165.69
2022-09-15T13:05:43.145Z,99175.63
2022-09-15T13:08:33.564Z,99186.06
2022-09-15T13:11:15.989Z,99174.69
2022-09-15T13:14:01.852Z,99171.97
2022-09-15T13:16:33.576Z,99164.47
2022-09-15T13:19:13.986Z,99153.13
2022-09-15T13:21:46.073Z,99156.78
2022-09-15T13:24:20.542Z,99163.69
2022-09-15T13:26:52.176Z,99172.72
2022-09-15T13:29:21.251Z,99221.09
2022-09-15T13:31:55.784Z,99232.41
2022-09-15T13:35:09.132Z,99203.72
2022-09-15T13:38:12.183Z,99206.69
2022-09-15T13:41:03.089Z,99209.41
2022-09-15T13:43:42.579Z,99192.59
2022-09-15T13:46:38.721Z,99194.84
2022-09-15T13:49:43.333Z,99206.69
2022-09-15T13:52:25.359Z,99214.19
2022-09-15T13:55:33.908Z,99194.84
2022-09-15T14:01:03.048Z,99208.03
2022-09-15T14:03:37.100Z,99193.97
2022-09-15T14:06:33.843Z,99174.38
2022-09-15T14:09:12.856Z,99160.81
2022-09-15T14:11:43.764Z,99178.19
2022-09-15T14:14:35.701Z,99189.94
2022-09-15T14:17:03.157Z,99184.13
2022-09-15T14:19:34.977Z,99180.47
2022-09-15T14:22:24.949Z,99183.41
2022-09-15T14:24:53.082Z,99180.09
2022-09-15T14:27:24.637Z,99177.31
2022-09-15T14:29:58.007Z,99172.38
2022-09-15T14:32:28.161Z,99160.91
2022-09-15T14:34:59.290Z,99148.19
2022-09-15T14:37:34.972Z,99139.16
2022-09-15T14:40:23.656Z,99140.59
2022-09-15T14:42:51.548Z,99138.38
2022-09-15T14:48:16.878Z,99140.47
2022-09-15T14:50:46.529Z,99141.09
2022-09-15T14:53:18.695Z,99148.69
2022-09-15T14:56:09.005Z,99155.22
2022-09-15T14:58:42.954Z,99144.34
2022-09-15T15:01:10.047Z,99139.66
2022-09-15T15:03:46.590Z,99134.78
2022-09-15T15:06:37.490Z,99118.44
2022-09-15T15:09:12.608Z,99122.63
2022-09-15T15:11:41.945Z,99144.03
2022-09-15T15:14:11.871Z,99150.25
2022-09-15T15:16:50.607Z,99168.56
2022-09-15T15:19:31.756Z,99158.59
2022-09-15T15:22:13.859Z,99154.03
2022-09-15T15:24:46.256Z,99161.28
2022-09-15T15:27:35.126Z,99157.22
2022-09-15T15:30:30.915Z,99132.09
2022-09-15T15:33:19.302Z,99152.50
2022-09-15T15:35:47.739Z,99171.38
2022-09-15T15:38:17.280Z,99172.38
2022-09-15T15:40:46.020Z,99153.84
2022-09-15T15:43:22.317Z,99152.69
2022-09-15T15:46:02.322Z,99160.69
2022-09-15T15:48:37.895Z,99159.47
2022-09-15T15:51:07.122Z,99144.69
2022-09-15T15:53:34.580Z,99132.50
2022-09-15T15:56:02.849Z,99120.88
2022-09-15T15:58:29.802Z,99118.72
2022-09-15T16:00:57.269Z,99101.00
2022-09-15T16:03:25.795Z,99103.75
2022-09-15T16:05:57.077Z,99112.66
2022-09-15T16:08:32.030Z,99122.00
2022-09-15T16:11:01.787Z,99130.63
2022-09-15T16:13:29.063Z,99124.03
2022-09-15T16:15:58.055Z,99118.84
2022-09-15T16:18:25.214Z,99131.50
2022-09-15T16:20:52.714Z,99144.22
2022-09-15T16:23:22.922Z,99171.13
2022-09-15T16:25:55.710Z,99148.50
2022-09-15T16:28:22.796Z,99111.22
2022-09-15T16:30:49.970Z,99131.94
2022-09-15T16:33:18.869Z,99116.25
2022-09-15T16:36:08.850Z,99167.19
2022-09-15T16:38:36.952Z,99162.88
2022-09-15T16:41:10.589Z,99146.19
2022-09-15T16:43:37.581Z,99145.38
2022-09-15T16:46:06.492Z,99143.88
2022-09-15T16:48:34.366Z,99135.88
2022-09-15T16:51:20.957Z,99139.91
2022-09-15T16:53:49.005Z,99134.97
2022-09-15T16:56:16.255Z,99160.06
2022-09-15T16:58:43.432Z,99163.59
2022-09-15T17:01:18.438Z,99142.84
2022-09-15T17:03:45.954Z,99154.78
2022-09-15T17:06:14.969Z,99158.97
2022-09-15T17:08:42.232Z,99149.56
2022-09-15T17:11:20.236Z,99160.31
2022-09-15T17:13:47.282Z,99156.38
2022-09-15T17:16:17.421Z,99139.22
2022-09-15T17:18:44.783Z,99116.44
2022-09-15T17:21:13.360Z,99100.22
2022-09-15T17:23:48.343Z,99099.56
2022-09-15T17:26:21.259Z,99099.66
2022-09-15T17:28:48.951Z,99122.44
2022-09-15T17:31:19.558Z,99147.63
2022-09-15T17:33:47.691Z,99154.94
2022-09-15T17:36:15.127Z,99202.38
2022-09-15T17:38:43.162Z,99175.22
2022-09-15T17:41:20.829Z,99132.84
2022-09-15T17:43:48.112Z,99165.94
2022-09-15T17:46:15.560Z,99202.31
2022-09-15T17:48:42.702Z,99234.75
2022-09-15T17:51:15.434Z,99282.25
2022-09-15T17:53:42.872Z,99336.03
2022-09-15T17:56:09.827Z,99358.88
2022-09-15T17:58:36.851Z,99368.41
2022-09-15T18:01:04.182Z,99317.97
2022-09-15T18:03:35.110Z,99299.09
2022-09-15T18:06:08.052Z,99310.19
2022-09-15T18:08:39.088Z,99353.50
2022-09-15T18:11:06.942Z,99340.13
2022-09-15T18:13:34.398Z,99355.00
2022-09-15T18:16:12.579Z,99345.16
2022-09-15T18:18:41.075Z,99300.53
2022-09-15T18:21:13.187Z,99244.22
2022-09-15T18:23:42.513Z,99257.03
2022-09-15T18:26:09.555Z,99267.28
2022-09-15T18:28:36.536Z,99257.66
2022-09-15T18:31:04.016Z,99266.78
2022-09-15T18:33:30.956Z,99270.31
2022-09-15T18:36:01.595Z,99261.06
2022-09-15T18:38:28.674Z,99264.09
2022-09-15T18:40:57.101Z,99266.78
2022-09-15T18:43:26.517Z,99281.53
2022-09-15T18:45:58.690Z,99265.06
2022-09-15T18:48:25.957Z,99253.69
2022-09-15T18:50:53.589Z,99278.72
2022-09-15T18:53:20.601Z,99286.59
2022-09-15T18:55:47.735Z,99268.31
2022-09-15T18:58:14.783Z,99262.06
2022-09-15T19:00:42.064Z,99241.38
2022-09-15T19:03:14.351Z,99235.13
2022-09-15T19:05:41.669Z,99218.50
2022-09-15T19:08:09.388Z,99213.63
2022-09-15T19:10:39.826Z,99229.72
2022-09-15T19:13:11.557Z,99239.41
2022-09-15T19:15:43.624Z,99231.97
2022-09-15T19:18:10.641Z,99237.47
2022-09-15T19:20:37.671Z,99225.25
2022-09-15T19:23:04.943Z,99220.97
2022-09-15T19:25:32.436Z,99215.25
2022-09-15T19:27:59.517Z,99209.56
2022-09-15T19:30:26.515Z,99217.19
2022-09-15T19:32:53.893Z,99231.63
2022-09-15T19:35:21.437Z,99250.88
2022-09-15T19:37:48.809Z,99237.97
2022-09-15T19:40:16.349Z,99226.28
2022-09-15T19:42:44.229Z,99246.13
2022-09-15T19:45:12.793Z,99255.69
2022-09-15T19:47:40.400Z,99232.19
2022-09-15T19:50:08.910Z,99225.69
2022-09-15T19:52:36.044Z,99228.38
2022-09-15T19:55:05.008Z,99228.38
2022-09-15T19:57:31.967Z,99219.06
2022-09-15T19:59:58.933Z,99238.22
2022-09-15T20:02:26.076Z,99272.13
2022-09-15T20:04:53.173Z,99259.25
2022-09-15T20:07:23.218Z,99264.97
2022-09-15T20:09:53.106Z,99279.91
2022-09-15T20:14:48.051Z,99347.34
2022-09-15T20:17:15.242Z,99347.69
2022-09-15T20:19:42.424Z,99340.34
2022-09-15T20:22:12.570Z,99349.53
2022-09-15T20:24:40.392Z,99372.72
2022-09-15T20:27:08.984Z,99353.97
2022-09-15T20:29:36.125Z,99364.88
2022-09-15T20:32:03.119Z,99366.31
2022-09-15T20:34:30.133Z,99362.44
2022-09-15T20:36:57.170Z,99354.84
2022-09-15T20:39:26.652Z,99342.75
2022-09-15T20:41:53.637Z,99327.34
2022-09-15T20:44:21.418Z,99321.44
2022-09-15T20:46:50.827Z,99351.44
2022-09-15T20:49:20.037Z,99359.28
2022-09-15T20:51:47.180Z,99358.25
2022-09-15T20:54:14.333Z,99362.84
2022-09-15T20:56:41.324Z,99368.28
2022-09-15T20:59:10.727Z,99371.81
2022-09-15T21:01:42.106Z,99385.16
2022-09-15T21:04:10.310Z,99386.75
2022-09-15T21:06:37.504Z,99384.56
2022-09-15T21:09:05.808Z,99371.25
2022-09-15T21:11:33.161Z,99397.13
2022-09-15T21:14:02.301Z,99388.69
2022-09-15T21:16:30.068Z,99390.31
2022-09-15T21:18:58.667Z,99377.47
2022-09-15T21:21:30.945Z,99385.47
2022-09-15T21:24:14.902Z,99382.13
2022-09-15T21:27:01.047Z,99392.19
2022-09-15T21:29:29.658Z,99397.28
2022-09-15T21:31:58.148Z,99388.09
2022-09-15T21:34:26.724Z,99392.16
2022-09-15T21:36:54.259Z,99383.72
2022-09-15T21:39:21.839Z,99378.03
2022-09-15T21:41:50.054Z,99385.06
2022-09-15T21:44:17.662Z,99386.38
2022-09-15T21:46:47.190Z,99373.59
2022-09-15T21:49:14.985Z,99371.06
2022-09-15T21:51:42.198Z,99373.50
2022-09-15T21:54:10.315Z,99367.25
2022-09-15T21:56:37.861Z,99379.34
2022-09-15T21:59:05.537Z,99382.78
2022-09-15T22:01:33.599Z,99379.00
2022-09-15T22:04:03.510Z,99369.97
2022-09-15T22:06:33.720Z,99384.47
2022-09-15T22:09:03.125Z,99403.78
2022-09-15T22:11:30.481Z,99398.78
2022-09-15T22:13:58.246Z,99388.78
2022-09-15T22:16:26.372Z,99396.66
2022-09-15T22:18:54.018Z,99411.41
2022-09-15T22:21:26.354Z,99405.41
2022-09-15T22:23:57.934Z,99413.59
2022-09-15T22:26:28.292Z,99405.69
2022-09-15T22:28:57.001Z,99414.16
2022-09-15T22:31:25.380Z,99414.47
2022-09-15T22:33:53.538Z,99404.66
2022-09-15T22:36:29.198Z,99398.94
2022-09-15T22:39:05.462Z,99404.41
2022-09-15T22:41:36.435Z,99413.88
2022-09-15T22:44:05.523Z,99414.13
2022-09-15T22:46:34.111Z,99403.16
2022-09-15T22:49:01.561Z,99411.78
2022-09-15T22:51:29.149Z,99415.03
2022-09-15T22:53:57.464Z,99404.22
2022-09-15T22:56:26.475Z,99402.88
2022-09-15T22:58:56.019Z,99413.28
2022-09-15T23:01:31.331Z,99412.88
2022-09-15T23:04:02.164Z,99418.34
2022-09-15T23:06:31.875Z,99423.03
2022-09-15T23:09:01.519Z,99424.06
2022-09-15T23:11:29.414Z,99430.31
2022-09-15T23:13:56.908Z,99423.88
2022-09-15T23:16:25.083Z,99429.19
2022-09-15T23:18:53.328Z,99427.63
2022-09-15T23:21:20.938Z,99428.69
2022-09-15T23:23:49.068Z,99426.84
2022-09-15T23:26:18.645Z,99416.22
2022-09-15T23:28:45.595Z,99409.44
2022-09-15T23:31:13.552Z,99412.31
2022-09-15T23:33:40.727Z,99410.78
2022-09-15T23:36:10.818Z,99405.00
2022-09-15T23:38:40.250Z,99400.88
2022-09-15T23:41:08.134Z,99402.22
2022-09-15T23:43:35.561Z,99394.06
2022-09-15T23:46:02.891Z,99405.28
2022-09-15T23:48:31.786Z,99405.28
2022-09-15T23:50:59.029Z,99410.75
2022-09-15T23:53:26.003Z,99420.84
2022-09-15T23:55:53.145Z,99429.28
2022-09-15T23:58:20.154Z,99432.50
